Time;durP1;ratioP1;P1;durP2;ratioP2;P2;SDS_P1;SDS_P2;PMS_P1;PMS_P2;Temp;Humidity;BMP_temperature;BMP_pressure;BME280_temperature;BME280_humidity;BME280_pressure;Samples;Min_cycle;Max_cycle;Signal;HPM_P1;HPM_P2
2023/12/01 00:01:47;;;;;;;61.08;27.83;;;;;;;-1.53;91.28;97441.94;5060840;28;20039;-83
2023/12/01 00:04:12;;;;;;;67.55;28.50;;;;;;;-1.56;90.05;97442.34;5050154;28;20132;-83
2023/12/01 00:06:38;;;;;;;68.22;28.88;;;;;;;-2.04;91.44;97442.88;5063029;28;20024;-83
2023/12/01 00:09:03;;;;;;;67.68;27.70;;;;;;;-2.22;92.84;97440.06;5048339;28;20035;-83
2023/12/01 00:11:28;;;;;;;72.55;29.42;;;;;;;-1.64;91.91;97447.78;5047385;28;20037;-82
2023/12/01 00:13:54;;;;;;;101.90;32.70;;;;;;;-2.59;91.72;97450.13;5062724;28;20124;-83
2023/12/01 00:16:19;;;;;;;93.63;34.03;;;;;;;-2.58;94.05;97459.56;5026188;28;20033;-83
2023/12/01 00:18:44;;;;;;;92.78;32.58;;;;;;;-2.52;93.70;97460.56;5026156;28;20515;-83
2023/12/01 00:21:10;;;;;;;86.82;32.00;;;;;;;-2.47;94.43;97460.78;5044777;28;20097;-82
2023/12/01 00:23:35;;;;;;;66.10;28.85;;;;;;;-1.53;94.47;97457.63;5068333;28;20083;-83
2023/12/01 00:26:01;;;;;;;94.78;31.38;;;;;;;-1.32;91.63;97458.38;5044217;28;20123;-83
2023/12/01 00:28:26;;;;;;;66.40;28.75;;;;;;;-0.58;92.18;97451.53;5060169;28;20056;-83
2023/12/01 00:30:52;;;;;;;69.88;28.15;;;;;;;-0.42;89.82;97452.81;5043632;28;20089;-83
2023/12/01 00:33:17;;;;;;;60.05;26.30;;;;;;;-0.39;88.49;97455.00;5063939;28;20062;-83
2023/12/01 00:35:42;;;;;;;61.40;24.85;;;;;;;-0.49;87.53;97463.34;5043793;28;20032;-83
2023/12/01 00:38:08;;;;;;;68.05;26.52;;;;;;;-0.44;88.16;97447.81;5060915;28;20062;-83
2023/12/01 00:40:33;;;;;;;59.40;26.13;;;;;;;-0.95;87.30;97460.22;5058838;28;20099;-83
2023/12/01 00:43:00;;;;;;;67.43;26.75;;;;;;;-0.52;87.76;97462.97;5060768;28;20039;-83
2023/12/01 00:45:26;;;;;;;69.03;27.23;;;;;;;-1.38;87.76;97451.34;5058730;28;20040;-82
2023/12/01 00:47:52;;;;;;;70.22;28.08;;;;;;;-1.80;88.63;97469.19;5041302;28;20055;-83
2023/12/01 00:50:18;;;;;;;73.10;27.15;;;;;;;-1.92;89.96;97452.50;5053869;28;20024;-83
2023/12/01 00:52:44;;;;;;;61.97;25.48;;;;;;;-1.54;90.93;97465.69;5058126;28;20043;-82
2023/12/01 00:55:09;;;;;;;62.97;26.70;;;;;;;-0.20;90.05;97467.19;5059264;28;20028;-83
2023/12/01 00:57:34;;;;;;;73.43;25.48;;;;;;;-1.23;87.51;97462.34;5041837;28;20098;-83
2023/12/01 01:00:00;;;;;;;54.42;24.73;;;;;;;-0.28;89.27;97454.31;5058409;28;20396;-83
2023/12/01 01:02:26;;;;;;;51.95;23.33;;;;;;;0.20;87.02;97451.91;5058794;28;20540;-82
2023/12/01 01:04:51;;;;;;;59.10;25.67;;;;;;;-0.54;85.67;97459.75;5058329;28;20025;-83
2023/12/01 01:07:16;;;;;;;60.25;25.98;;;;;;;-0.93;86.79;97461.63;5024581;28;20037;-83
2023/12/01 01:09:42;;;;;;;57.65;26.50;;;;;;;-0.74;86.57;97475.59;5058447;28;20179;-83
2023/12/01 01:12:07;;;;;;;63.72;26.00;;;;;;;-1.14;86.82;97471.59;5058726;28;20032;-83
2023/12/01 01:14:33;;;;;;;54.20;23.00;;;;;;;-0.11;87.73;97473.75;5058251;28;20472;-83
2023/12/01 01:16:58;;;;;;;64.32;27.85;;;;;;;-1.66;87.37;97486.44;5055003;28;20043;-83
2023/12/01 01:19:24;;;;;;;82.10;27.60;;;;;;;-2.12;90.24;97508.41;5041388;28;20821;-83
2023/12/01 01:21:49;;;;;;;67.15;26.25;;;;;;;-2.19;91.00;97474.44;5060848;28;20329;-84
2023/12/01 01:24:14;;;;;;;79.60;29.52;;;;;;;-1.43;90.91;97495.63;5024315;28;20484;-83
2023/12/01 01:26:40;;;;;;;77.00;30.67;;;;;;;-1.27;89.76;97487.34;5077553;28;20036;-83
2023/12/01 01:29:05;;;;;;;63.83;27.83;;;;;;;-0.91;89.87;97491.00;5046739;28;20032;-83
2023/12/01 01:31:31;;;;;;;65.60;25.25;;;;;;;-0.82;88.38;97499.41;5058174;28;20111;-83
2023/12/01 01:33:57;;;;;;;103.93;28.95;;;;;;;-1.59;90.12;97497.69;5063335;28;20037;-84
2023/12/01 01:36:22;;;;;;;65.75;25.35;;;;;;;-1.80;89.97;97489.28;5062547;28;20113;-83
2023/12/01 01:38:47;;;;;;;106.13;30.42;;;;;;;-1.75;88.95;97510.41;5023223;28;20140;-84
2023/12/01 01:41:13;;;;;;;60.75;24.88;;;;;;;-0.49;91.05;97497.41;5059780;28;20028;-84
2023/12/01 01:43:38;;;;;;;73.63;26.83;;;;;;;-0.96;87.71;97511.75;5046056;28;20032;-83
2023/12/01 01:46:11;;;;;;;58.28;24.88;;;;;;;-0.59;88.53;97506.75;5047203;28;20131;-83
2023/12/01 01:48:37;;;;;;;78.50;25.08;;;;;;;-1.02;86.83;97503.94;5061033;28;20036;-84
2023/12/01 01:51:06;;;;;;;50.45;21.65;;;;;;;-0.15;87.86;97496.97;5060812;28;20060;-83
2023/12/01 01:53:33;;;;;;;51.83;22.63;;;;;;;-0.05;87.57;97486.81;5061690;28;20037;-83
2023/12/01 01:55:58;;;;;;;48.22;21.63;;;;;;;0.26;86.73;97499.06;5066580;28;20394;-83
2023/12/01 01:58:27;;;;;;;60.97;24.27;;;;;;;0.22;85.27;97503.09;5063502;28;20639;-83
2023/12/01 02:00:53;;;;;;;43.75;21.67;;;;;;;0.32;85.40;97489.50;5047825;28;20399;-83
2023/12/01 02:03:20;;;;;;;50.10;22.17;;;;;;;0.59;84.72;97494.25;5059167;28;20099;-83
2023/12/01 02:05:48;;;;;;;43.35;20.52;;;;;;;0.25;84.75;97491.38;5078329;28;20032;-83
2023/12/01 02:08:28;;;;;;;46.35;19.95;;;;;;;-0.62;84.56;97494.06;5060610;28;20041;-83
2023/12/01 02:10:55;;;;;;;42.67;19.88;;;;;;;-0.84;88.14;97486.53;5060562;28;20154;-83
2023/12/01 02:13:22;;;;;;;47.53;21.88;;;;;;;0.12;86.76;97502.00;5049636;28;20039;-84
2023/12/01 02:15:48;;;;;;;45.53;22.27;;;;;;;0.20;86.23;97510.38;5065026;28;20025;-83
2023/12/01 02:18:23;;;;;;;60.40;22.88;;;;;;;-1.01;84.90;97508.19;5060001;28;20538;-84
2023/12/01 02:20:50;;;;;;;59.30;22.42;;;;;;;-0.98;87.03;97497.28;5085271;28;20464;-84
2023/12/01 02:23:15;;;;;;;44.10;20.23;;;;;;;0.37;86.26;97492.28;5060534;28;20036;-84
2023/12/01 02:25:41;;;;;;;48.05;23.23;;;;;;;0.31;85.04;97499.19;5055381;28;20032;-85
2023/12/01 02:28:06;;;;;;;49.08;21.15;;;;;;;-0.09;83.33;97503.97;5063615;28;20091;-84
2023/12/01 02:30:32;;;;;;;50.83;21.63;;;;;;;-0.77;85.49;97492.56;5063403;28;20036;-83
2023/12/01 02:32:57;;;;;;;42.03;20.00;;;;;;;-0.05;85.54;97494.69;5063065;28;20478;-83
2023/12/01 02:35:29;;;;;;;45.20;21.70;;;;;;;-0.40;84.68;97506.63;5045770;28;20041;-83
2023/12/01 02:37:57;;;;;;;50.05;20.60;;;;;;;-0.50;87.11;97508.13;5049290;28;20048;-83
2023/12/01 02:40:23;;;;;;;52.28;18.83;;;;;;;-0.91;86.11;97504.09;5058617;28;20031;-83
2023/12/01 02:42:50;;;;;;;75.32;23.67;;;;;;;-1.33;86.40;97514.34;5059755;28;20025;-83
2023/12/01 02:45:19;;;;;;;84.57;25.13;;;;;;;-1.05;88.03;97515.63;5066674;28;20033;-83
2023/12/01 02:47:47;;;;;;;66.65;22.25;;;;;;;-1.47;87.44;97523.22;5062823;28;20032;-83
2023/12/01 02:50:13;;;;;;;78.53;27.05;;;;;;;-1.71;88.64;97516.84;5057660;28;20020;-83
2023/12/01 02:52:41;;;;;;;65.07;23.63;;;;;;;-2.07;89.53;97519.06;5064459;28;20040;-83
2023/12/01 02:55:07;;;;;;;183.05;37.30;;;;;;;-2.58;91.08;97519.63;5057082;28;20058;-83
2023/12/01 02:57:37;;;;;;;86.72;25.05;;;;;;;-2.37;92.72;97514.22;5062610;28;20032;-83
2023/12/01 03:00:06;;;;;;;146.63;36.55;;;;;;;-2.26;92.23;97510.22;5047127;28;20048;-83
2023/12/01 03:02:32;;;;;;;77.57;27.73;;;;;;;-1.78;91.19;97503.75;5045015;28;20553;-83
2023/12/01 03:04:57;;;;;;;47.47;20.42;;;;;;;-0.76;90.96;97481.06;5044208;28;20032;-82
2023/12/01 03:07:22;;;;;;;214.60;40.20;;;;;;;-2.79;90.36;97501.50;5061377;28;20492;-83
2023/12/01 03:09:48;;;;;;;129.40;32.00;;;;;;;-2.64;93.28;97485.66;5032735;28;20113;-82
2023/12/01 03:12:13;;;;;;;241.60;45.95;;;;;;;-2.46;92.37;97501.56;5063427;28;20047;-82
2023/12/01 03:14:38;;;;;;;86.38;29.05;;;;;;;-2.26;92.17;97491.94;5067545;28;20032;-83
2023/12/01 03:17:04;;;;;;;91.38;29.45;;;;;;;-2.24;91.42;97502.16;5050644;28;20120;-83
2023/12/01 03:19:29;;;;;;;71.50;24.35;;;;;;;-2.57;93.73;97499.53;5051235;28;20090;-82
2023/12/01 03:21:55;;;;;;;57.92;23.15;;;;;;;-1.72;91.99;97507.38;5067025;28;20082;-83
2023/12/01 03:24:20;;;;;;;90.65;30.48;;;;;;;-2.58;90.99;97497.94;5063085;28;20150;-82
2023/12/01 03:26:45;;;;;;;77.13;24.88;;;;;;;-2.71;92.32;97490.84;5061811;28;20841;-82
2023/12/01 03:29:11;;;;;;;117.38;28.33;;;;;;;-2.72;92.62;97517.19;5062397;28;20028;-83
2023/12/01 03:31:36;;;;;;;69.82;22.08;;;;;;;-2.97;93.42;97521.34;5048627;28;20036;-82
2023/12/01 03:34:05;;;;;;;58.55;23.23;;;;;;;-2.45;95.65;97517.03;5067767;28;20036;-82
2023/12/01 03:36:30;;;;;;;63.55;24.35;;;;;;;-2.26;95.00;97510.22;5066673;28;20522;-83
2023/12/01 03:38:56;;;;;;;58.35;21.58;;;;;;;-2.19;93.81;97510.22;5049930;28;20028;-83
2023/12/01 03:41:21;;;;;;;53.85;20.33;;;;;;;-1.80;92.65;97518.84;5048489;28;20032;-83
2023/12/01 03:43:46;;;;;;;62.75;24.67;;;;;;;-1.00;91.23;97518.44;5049787;28;20057;-83
2023/12/01 03:46:12;;;;;;;60.45;22.63;;;;;;;-0.28;88.81;97522.47;5066314;28;20507;-84
2023/12/01 03:48:37;;;;;;;48.80;21.80;;;;;;;-0.88;89.21;97529.88;5061728;28;20029;-84
2023/12/01 03:51:03;;;;;;;52.97;21.40;;;;;;;-1.67;87.67;97520.66;5039451;28;20040;-84
2023/12/01 03:53:31;;;;;;;52.00;24.73;;;;;;;-1.93;88.78;97524.09;5049009;28;20032;-83
2023/12/01 03:56:00;;;;;;;58.75;25.10;;;;;;;-2.76;90.11;97519.38;5066987;28;20025;-83
2023/12/01 03:58:26;;;;;;;64.35;24.92;;;;;;;-2.64;92.93;97501.31;5064843;28;20028;-83
2023/12/01 04:00:52;;;;;;;52.17;22.70;;;;;;;-1.91;92.08;97535.16;5069249;28;20043;-83
2023/12/01 04:03:18;;;;;;;58.22;22.73;;;;;;;-1.18;92.12;97512.28;5058559;28;20091;-83
2023/12/01 04:05:43;;;;;;;65.80;23.73;;;;;;;-1.80;88.73;97537.16;5066165;28;20107;-83
2023/12/01 04:08:09;;;;;;;66.15;26.35;;;;;;;-2.56;89.86;97530.69;5048160;28;20120;-82
2023/12/01 04:10:34;;;;;;;65.00;24.70;;;;;;;-2.30;92.34;97540.38;5066631;28;20068;-83
2023/12/01 04:13:07;;;;;;;51.13;20.70;;;;;;;-0.67;92.35;97510.41;5050030;28;20399;-83
2023/12/01 04:15:34;;;;;;;64.05;26.20;;;;;;;-1.79;87.60;97519.66;5049972;28;20021;-83
2023/12/01 04:18:08;;;;;;;63.78;25.58;;;;;;;-1.80;90.03;97518.84;5047829;28;20029;-82
2023/12/01 04:20:36;;;;;;;66.47;25.60;;;;;;;-1.93;89.33;97531.13;5046854;28;21818;-83
2023/12/01 04:23:03;;;;;;;74.22;26.35;;;;;;;-1.95;89.97;97527.91;5062378;28;20280;-84
2023/12/01 04:25:29;;;;;;;51.08;22.30;;;;;;;-1.05;90.78;97527.94;5060688;28;20503;-83
2023/12/01 04:27:56;;;;;;;67.07;25.58;;;;;;;-0.41;87.36;97525.19;5042527;28;20070;-83
2023/12/01 04:30:23;;;;;;;48.47;21.73;;;;;;;-0.34;88.72;97531.19;5062673;28;20040;-84
2023/12/01 04:32:53;;;;;;;60.28;24.40;;;;;;;-0.53;86.52;97532.13;5065028;28;20483;-84
2023/12/01 04:35:22;;;;;;;52.50;22.20;;;;;;;-0.33;88.34;97543.28;5062961;28;20051;-84
2023/12/01 04:37:48;;;;;;;66.00;27.40;;;;;;;-0.50;85.81;97542.19;5046923;28;20028;-84
2023/12/01 04:40:16;;;;;;;75.82;28.33;;;;;;;-1.38;85.56;97553.41;5060330;28;20675;-83
2023/12/01 04:42:43;;;;;;;65.57;27.23;;;;;;;-1.90;87.98;97562.88;5065762;28;20024;-84
2023/12/01 04:45:11;;;;;;;77.45;29.83;;;;;;;-2.15;89.44;97554.03;5064102;28;20058;-84
2023/12/01 04:47:40;;;;;;;67.60;25.17;;;;;;;-1.88;90.46;97558.25;5066161;28;20040;-83
2023/12/01 04:50:15;;;;;;;81.13;32.38;;;;;;;-1.92;90.96;97561.50;5065561;28;20035;-83
2023/12/01 04:52:40;;;;;;;101.53;34.60;;;;;;;-2.38;90.61;97561.47;5067497;28;20178;-83
2023/12/01 04:55:09;;;;;;;99.63;34.33;;;;;;;-2.09;90.58;97568.91;5064340;28;20107;-82
2023/12/01 04:57:34;;;;;;;85.13;29.00;;;;;;;-1.62;91.00;97558.25;5061234;28;20544;-83
2023/12/01 04:59:59;;;;;;;88.75;32.95;;;;;;;-2.26;89.38;97562.47;5028329;28;20099;-83
2023/12/01 05:02:25;;;;;;;83.10;31.15;;;;;;;-2.22;90.25;97568.09;5035733;28;20028;-83
2023/12/01 05:04:50;;;;;;;104.47;35.13;;;;;;;-2.25;89.72;97569.31;5039494;28;20128;-83
2023/12/01 05:07:16;;;;;;;83.97;28.88;;;;;;;-2.20;91.48;97577.34;5029285;28;20120;-83
2023/12/01 05:09:41;;;;;;;99.70;32.70;;;;;;;-2.37;90.60;97574.31;5064330;28;20063;-83
2023/12/01 05:12:07;;;;;;;87.07;30.77;;;;;;;-2.08;90.70;97580.19;5033329;28;20029;-82
2023/12/01 05:14:33;;;;;;;85.50;31.63;;;;;;;-2.09;90.49;97563.69;5074386;28;20047;-82
2023/12/01 05:16:58;;;;;;;64.55;26.25;;;;;;;-1.10;90.95;97564.41;5057066;28;20033;-84
2023/12/01 05:19:24;;;;;;;86.85;30.10;;;;;;;-0.65;88.29;97558.16;5065663;28;20381;-83
2023/12/01 05:21:49;;;;;;;67.22;28.23;;;;;;;-1.60;87.85;97569.34;5042803;28;20174;-83
2023/12/01 05:24:14;;;;;;;80.07;29.88;;;;;;;-1.81;88.89;97571.34;5062690;28;20123;-83
2023/12/01 05:26:40;;;;;;;82.40;30.58;;;;;;;-1.78;88.63;97566.53;5060851;28;20036;-82
2023/12/01 05:29:12;;;;;;;85.72;31.92;;;;;;;-1.69;89.52;97567.94;5045738;28;20089;-82
2023/12/01 05:31:38;;;;;;;78.15;30.58;;;;;;;-2.04;89.24;97566.53;5029512;28;20036;-83
2023/12/01 05:34:05;;;;;;;72.80;29.63;;;;;;;-1.62;91.43;97596.69;5040707;28;20637;-82
2023/12/01 05:36:30;;;;;;;77.45;26.65;;;;;;;-1.24;89.38;97587.19;5058732;28;20115;-83
2023/12/01 05:38:57;;;;;;;70.35;25.92;;;;;;;-0.73;88.75;97594.28;5057481;28;20027;-82
2023/12/01 05:41:22;;;;;;;67.18;26.52;;;;;;;-0.96;85.80;97597.41;5062378;28;20075;-83
2023/12/01 05:43:48;;;;;;;70.03;26.77;;;;;;;-1.49;87.39;97591.47;5062116;28;20024;-83
2023/12/01 05:46:13;;;;;;;65.75;25.77;;;;;;;-1.70;89.36;97595.06;5057879;28;20112;-82
2023/12/01 05:48:38;;;;;;;61.15;24.48;;;;;;;-1.37;89.26;97597.66;5060944;28;20067;-82
2023/12/01 05:51:04;;;;;;;54.63;23.63;;;;;;;-2.52;90.44;97599.00;5059432;28;20045;-83
2023/12/01 05:53:34;;;;;;;55.55;23.30;;;;;;;-1.87;92.03;97608.75;5062713;28;20048;-83
2023/12/01 05:56:02;;;;;;;68.10;27.30;;;;;;;-2.22;90.83;97602.88;5054710;28;20488;-83
2023/12/01 05:58:28;;;;;;;67.35;28.30;;;;;;;-2.36;89.49;97606.47;5042454;28;20120;-82
2023/12/01 06:00:53;;;;;;;67.60;28.77;;;;;;;-2.00;89.86;97595.66;5062283;28;21411;-82
2023/12/01 06:03:19;;;;;;;62.13;25.02;;;;;;;-2.10;89.47;97603.09;5058674;28;20052;-83
2023/12/01 06:05:46;;;;;;;73.13;27.40;;;;;;;-2.74;90.66;97610.56;5048225;28;20032;-83
2023/12/01 06:08:12;;;;;;;65.22;27.30;;;;;;;-2.32;91.61;97584.19;5058964;28;20037;-84
2023/12/01 06:10:38;;;;;;;73.90;28.70;;;;;;;-2.81;91.20;97599.28;5044037;28;20340;-84
2023/12/01 06:13:04;;;;;;;64.43;26.00;;;;;;;-2.43;91.84;97609.06;5057048;28;20427;-83
2023/12/01 06:15:29;;;;;;;70.55;26.30;;;;;;;-1.08;92.33;97607.69;5066092;28;20035;-84
2023/12/01 06:17:57;;;;;;;68.47;28.02;;;;;;;-1.46;89.13;97616.41;5057532;28;20086;-83
2023/12/01 06:20:23;;;;;;;56.08;25.75;;;;;;;-0.79;88.06;97604.56;5063329;28;20111;-84
2023/12/01 06:22:54;;;;;;;66.78;27.60;;;;;;;-2.17;87.50;97616.16;5061375;28;20112;-83
2023/12/01 06:25:21;;;;;;;69.43;28.50;;;;;;;-1.87;88.99;97627.88;5065599;28;20033;-83
2023/12/01 06:27:47;;;;;;;70.05;29.48;;;;;;;-1.57;88.83;97633.50;5042856;28;20041;-84
2023/12/01 06:30:14;;;;;;;70.38;25.88;;;;;;;-2.28;89.33;97645.47;5057216;28;20060;-83
2023/12/01 06:32:41;;;;;;;56.28;24.50;;;;;;;-1.73;89.34;97642.56;5061160;28;20040;-83
2023/12/01 06:35:11;;;;;;;65.53;29.40;;;;;;;-1.43;88.28;97639.53;5060904;28;20029;-84
2023/12/01 06:37:38;;;;;;;66.05;26.95;;;;;;;-1.73;87.19;97653.03;5056631;28;20036;-83
2023/12/01 06:40:04;;;;;;;62.80;27.02;;;;;;;-1.96;88.22;97636.91;5063818;28;21189;-83
2023/12/01 06:42:29;;;;;;;61.17;27.65;;;;;;;-2.46;88.83;97650.44;5045973;28;20029;-84
2023/12/01 06:44:56;;;;;;;62.67;27.27;;;;;;;-2.29;89.03;97662.16;5050984;28;20043;-83
2023/12/01 06:47:21;;;;;;;64.93;25.95;;;;;;;-2.39;90.16;97661.72;5067390;28;20062;-84
2023/12/01 06:49:47;;;;;;;55.13;25.00;;;;;;;-2.87;89.73;97657.47;5070245;28;20492;-83
2023/12/01 06:52:15;;;;;;;58.00;23.92;;;;;;;-2.75;90.56;97674.22;5065789;28;20059;-83
2023/12/01 06:54:40;;;;;;;70.50;24.92;;;;;;;-2.77;90.82;97673.59;5064879;28;20031;-84
2023/12/01 06:57:05;;;;;;;58.80;25.20;;;;;;;-1.33;92.11;97671.34;5063509;28;20251;-83
2023/12/01 06:59:31;;;;;;;57.00;25.60;;;;;;;-1.79;88.95;97668.72;5063361;28;20434;-84
2023/12/01 07:01:56;;;;;;;55.58;25.52;;;;;;;-1.21;89.95;97677.56;5051808;28;20044;-84
2023/12/01 07:04:24;;;;;;;66.78;27.83;;;;;;;-1.35;86.40;97678.56;5064883;28;20109;-84
2023/12/01 07:06:49;;;;;;;48.97;21.85;;;;;;;-1.09;87.05;97679.38;5035313;28;20033;-83
2023/12/01 07:09:17;;;;;;;59.30;25.35;;;;;;;-0.74;86.37;97684.38;5033237;28;20040;-83
2023/12/01 07:11:43;;;;;;;53.97;24.60;;;;;;;-1.24;85.20;97697.09;5062589;28;20459;-83
2023/12/01 07:14:12;;;;;;;53.80;24.25;;;;;;;-1.46;85.82;97695.69;5068603;28;20024;-84
2023/12/01 07:16:39;;;;;;;61.55;26.02;;;;;;;-1.83;86.44;97711.94;5047063;28;20036;-84
2023/12/01 07:19:04;;;;;;;62.50;26.70;;;;;;;-1.63;87.40;97704.94;5051902;28;20039;-84
2023/12/01 07:21:30;;;;;;;56.25;24.65;;;;;;;-1.38;87.50;97705.97;5061812;28;20421;-83
2023/12/01 07:23:55;;;;;;;58.45;26.27;;;;;;;-1.37;87.42;97706.75;5046654;28;20119;-83
2023/12/01 07:26:27;;;;;;;55.55;23.30;;;;;;;-0.84;87.24;97708.34;5068203;28;20032;-83
2023/12/01 07:28:52;;;;;;;55.65;24.75;;;;;;;-1.43;89.79;97710.19;5069432;28;20024;-83
2023/12/01 07:31:18;;;;;;;55.25;25.08;;;;;;;-1.07;89.69;97721.06;5069437;28;20499;-83
2023/12/01 07:33:43;;;;;;;52.03;24.42;;;;;;;-1.27;88.23;97710.59;5065551;28;20036;-83
2023/12/01 07:36:09;;;;;;;54.88;25.38;;;;;;;-1.35;86.34;97702.94;5032868;28;20056;-83
2023/12/01 07:38:35;;;;;;;59.17;24.55;;;;;;;-1.09;88.22;97723.88;5080516;28;20071;-83
2023/12/01 07:41:01;;;;;;;52.47;23.00;;;;;;;-1.10;87.21;97724.09;5064294;28;20563;-83
2023/12/01 07:43:26;;;;;;;58.38;24.67;;;;;;;-0.90;86.96;97717.03;5043430;28;20028;-83
2023/12/01 07:45:52;;;;;;;60.33;25.08;;;;;;;-1.60;85.86;97722.84;5064369;28;20046;-83
2023/12/01 07:48:17;;;;;;;51.45;23.60;;;;;;;-1.62;87.42;97725.66;5048395;28;20059;-83
2023/12/01 07:50:44;;;;;;;57.50;24.95;;;;;;;-1.27;86.53;97726.31;5053030;28;20484;-83
2023/12/01 07:53:10;;;;;;;55.85;25.45;;;;;;;-1.43;86.21;97731.13;5049789;28;20484;-83
2023/12/01 07:55:36;;;;;;;63.35;26.80;;;;;;;-1.13;87.27;97720.06;5067361;28;20043;-83
2023/12/01 07:58:01;;;;;;;63.83;27.77;;;;;;;-2.04;87.00;97727.75;5064175;28;20020;-83
2023/12/01 08:00:27;;;;;;;57.40;25.48;;;;;;;-2.24;88.24;97724.28;5046304;28;20028;-82
2023/12/01 08:02:53;;;;;;;55.08;27.35;;;;;;;-2.01;89.03;97733.41;5064573;28;20020;-83
2023/12/01 08:05:18;;;;;;;61.40;26.05;;;;;;;-2.15;88.90;97710.84;5065656;28;20545;-82
2023/12/01 08:07:52;;;;;;;62.30;25.83;;;;;;;-2.07;89.43;97733.38;5067060;28;20485;-83
2023/12/01 08:10:19;;;;;;;52.30;24.20;;;;;;;-1.41;90.72;97734.34;5061547;28;20504;-82
2023/12/01 08:12:46;;;;;;;65.25;27.27;;;;;;;-2.14;88.86;97746.41;5062561;28;20387;-82
2023/12/01 08:15:11;;;;;;;67.50;29.58;;;;;;;-2.32;89.65;97736.53;5067281;28;20037;-83
2023/12/01 08:17:38;;;;;;;68.88;26.92;;;;;;;-2.67;90.51;97739.34;5086102;28;20751;-82
2023/12/01 08:20:07;;;;;;;68.13;29.27;;;;;;;-2.25;91.49;97738.34;5065660;28;20032;-82
2023/12/01 08:22:34;;;;;;;75.88;29.38;;;;;;;-2.36;90.81;97735.28;5065255;28;20055;-83
2023/12/01 08:25:00;;;;;;;70.30;28.33;;;;;;;-2.48;91.15;97730.81;5064401;28;20067;-83
2023/12/01 08:27:25;;;;;;;67.28;28.15;;;;;;;-2.27;90.53;97733.31;5054197;28;20029;-83
2023/12/01 08:29:51;;;;;;;68.10;26.48;;;;;;;-2.52;91.06;97746.06;5051523;28;20495;-82
2023/12/01 08:32:16;;;;;;;70.95;28.30;;;;;;;-2.49;91.04;97737.81;5050712;28;20038;-82
2023/12/01 08:34:42;;;;;;;64.00;27.02;;;;;;;-2.25;91.08;97743.56;5070946;28;20108;-82
2023/12/01 08:37:10;;;;;;;70.30;29.23;;;;;;;-1.71;90.86;97750.41;5037331;28;20055;-83
2023/12/01 08:39:35;;;;;;;71.75;29.52;;;;;;;-1.92;88.79;97739.28;5059575;28;20464;-83
2023/12/01 08:42:01;;;;;;;67.20;26.63;;;;;;;-2.26;90.19;97742.75;5074673;28;20041;-83
2023/12/01 08:44:26;;;;;;;71.53;29.05;;;;;;;-1.89;90.45;97757.97;5030401;28;20036;-83
2023/12/01 08:46:51;;;;;;;73.85;28.52;;;;;;;-2.67;90.77;97753.22;5051077;28;20575;-82
2023/12/01 08:49:17;;;;;;;68.45;27.95;;;;;;;-2.48;92.14;97759.53;5066661;28;20400;-82
2023/12/01 08:51:43;;;;;;;70.85;28.38;;;;;;;-1.83;91.39;97754.56;5087330;28;20123;-82
2023/12/01 08:54:08;;;;;;;67.22;26.55;;;;;;;-2.06;89.83;97761.94;5066695;28;20032;-82
2023/12/01 08:56:34;;;;;;;67.35;27.33;;;;;;;-1.52;91.28;97762.72;5058726;28;20025;-82
2023/12/01 08:59:00;;;;;;;81.68;31.35;;;;;;;-2.28;89.40;97744.78;5068608;28;20020;-83
2023/12/01 09:01:26;;;;;;;70.47;30.33;;;;;;;-1.75;89.89;97764.84;5064595;28;20542;-83
2023/12/01 09:03:51;;;;;;;76.40;32.33;;;;;;;-2.54;89.92;97768.16;5068670;28;20607;-82
2023/12/01 09:06:17;;;;;;;79.93;31.45;;;;;;;-2.06;90.29;97767.19;5069725;28;20388;-84
2023/12/01 09:08:42;;;;;;;77.50;32.05;;;;;;;-1.67;90.39;97776.97;5058599;28;20465;-83
2023/12/01 09:11:08;;;;;;;85.70;33.78;;;;;;;-2.10;89.35;97773.00;5067970;28;20025;-83
2023/12/01 09:13:34;;;;;;;73.32;30.10;;;;;;;-1.90;90.22;97772.03;5068045;28;20127;-83
2023/12/01 09:16:00;;;;;;;96.70;33.15;;;;;;;-2.54;90.23;97768.97;5062137;28;20089;-83
2023/12/01 09:18:32;;;;;;;72.57;31.40;;;;;;;-2.55;91.25;97772.56;5058555;28;20515;-83
2023/12/01 09:20:58;;;;;;;81.57;30.33;;;;;;;-2.40;90.52;97759.38;5058606;28;20433;-83
2023/12/01 09:23:24;;;;;;;73.97;31.05;;;;;;;-2.69;91.02;97781.31;5065517;28;20116;-84
2023/12/01 09:25:50;;;;;;;89.05;36.42;;;;;;;-2.00;91.09;97781.25;5065567;28;20475;-83
2023/12/01 09:28:15;;;;;;;86.55;34.70;;;;;;;-2.00;90.21;97778.66;5044400;28;20048;-84
2023/12/01 09:30:41;;;;;;;77.03;29.45;;;;;;;-2.40;90.93;97764.59;5045280;28;20032;-84
2023/12/01 09:33:06;;;;;;;76.60;32.88;;;;;;;-2.43;90.68;97775.44;5062688;28;20041;-84
2023/12/01 09:35:34;;;;;;;83.28;32.13;;;;;;;-2.50;91.16;97771.97;5040516;28;20036;-85
2023/12/01 09:38:00;;;;;;;92.45;34.85;;;;;;;-2.34;90.11;97780.31;5045333;28;20058;-84
2023/12/01 09:40:25;;;;;;;89.50;34.45;;;;;;;-2.39;91.17;97781.88;5066689;28;20107;-84
2023/12/01 09:42:50;;;;;;;74.65;29.85;;;;;;;-1.79;92.12;97787.16;5036106;28;20036;-84
2023/12/01 09:45:26;;;;;;;96.82;36.30;;;;;;;-2.44;91.57;97772.00;5052804;28;20036;-84
2023/12/01 09:47:57;;;;;;;88.50;34.63;;;;;;;-2.07;91.31;97780.41;5065769;28;20030;-84
2023/12/01 09:50:22;;;;;;;82.57;28.85;;;;;;;-1.33;91.55;97776.03;5058410;28;20045;-85
2023/12/01 09:52:48;;;;;;;89.47;34.97;;;;;;;-1.91;88.66;97782.72;5044558;28;20480;-84
2023/12/01 09:55:14;;;;;;;88.95;35.10;;;;;;;-1.54;89.54;97776.97;5065617;28;20063;-84
2023/12/01 09:57:41;;;;;;;93.28;35.35;;;;;;;-2.35;90.53;97789.16;5048403;28;20178;-84
2023/12/01 10:00:11;;;;;;;95.03;36.22;;;;;;;-2.55;92.26;97784.81;5066876;28;20467;-84
2023/12/01 10:02:38;;;;;;;93.38;39.58;;;;;;;-2.15;91.86;97776.19;5084850;28;20032;-84
2023/12/01 10:05:06;;;;;;;99.13;37.17;;;;;;;-1.42;90.60;97793.69;5065719;28;20032;-84
2023/12/01 10:07:32;;;;;;;85.13;34.88;;;;;;;-1.62;88.86;97774.56;5066884;28;20107;-85
2023/12/01 10:09:58;;;;;;;100.85;39.53;;;;;;;-0.97;88.83;97771.22;5050858;28;20444;-86
2023/12/01 10:12:23;;;;;;;123.43;54.60;;;;;;;-2.01;88.15;97763.97;5063005;28;20055;-84
2023/12/01 10:14:49;;;;;;;87.38;38.85;;;;;;;-1.77;88.75;97777.31;5050221;28;20423;-84
2023/12/01 10:17:14;;;;;;;86.55;35.47;;;;;;;-2.48;89.22;97749.09;5063565;28;20138;-84
2023/12/01 10:19:47;;;;;;;80.95;34.67;;;;;;;-1.91;89.50;97790.56;5049577;28;20025;-85
2023/12/01 10:22:13;;;;;;;86.57;35.65;;;;;;;-1.97;89.26;97786.94;5057380;28;20108;-85
2023/12/01 10:24:38;;;;;;;79.18;32.33;;;;;;;-2.17;89.42;97793.88;5069236;28;20031;-85
2023/12/01 10:27:08;;;;;;;81.40;34.63;;;;;;;-1.89;90.55;97781.50;5073229;28;20028;-85
2023/12/01 10:29:35;;;;;;;77.75;34.28;;;;;;;-1.96;88.49;97800.78;5064157;28;20071;-84
2023/12/01 10:32:02;;;;;;;80.20;35.70;;;;;;;-1.66;88.88;97800.28;5065188;28;20028;-85
2023/12/01 10:34:28;;;;;;;69.55;32.00;;;;;;;-1.99;88.33;97788.94;5067709;28;20032;-85
2023/12/01 10:36:53;;;;;;;76.40;31.00;;;;;;;-2.41;88.97;97760.38;5065030;28;20029;-84
2023/12/01 10:39:29;;;;;;;72.97;31.25;;;;;;;-2.14;89.09;97775.16;5055234;28;20028;-84
2023/12/01 10:41:58;;;;;;;69.70;28.80;;;;;;;-2.91;89.15;97750.22;5063337;28;20032;-84
2023/12/01 10:44:26;;;;;;;59.15;27.27;;;;;;;-2.14;90.97;97780.38;5074480;28;20485;-84
2023/12/01 10:46:53;;;;;;;63.33;27.45;;;;;;;-1.94;90.19;97780.47;5055675;28;20009;-85
2023/12/01 10:49:20;;;;;;;61.22;27.33;;;;;;;-2.11;89.38;97781.81;5070065;28;20500;-85
2023/12/01 10:51:52;;;;;;;69.20;27.83;;;;;;;-2.38;88.95;97775.69;5062912;28;20544;-84
2023/12/01 10:54:21;;;;;;;60.55;25.48;;;;;;;-1.90;90.50;97756.34;5066936;28;20036;-84
2023/12/01 10:57:05;;;;;;;53.38;22.95;;;;;;;-1.87;87.56;97776.09;5067161;28;20120;-85
2023/12/01 10:59:34;;;;;;;45.83;20.92;;;;;;;-2.01;87.61;97762.16;5082205;28;20040;-85
2023/12/01 11:02:00;;;;;;;49.10;20.85;;;;;;;-2.24;87.42;97782.56;5072998;28;20469;-85
2023/12/01 11:04:26;;;;;;;44.70;22.08;;;;;;;-1.78;89.85;97760.03;5068294;28;20043;-84
2023/12/01 11:07:05;;;;;;;42.17;19.30;;;;;;;-1.99;88.63;97764.59;5066703;28;20143;-85
2023/12/01 11:10:00;;;;;;;40.90;19.80;;;;;;;-1.94;87.15;97783.91;5070330;28;20028;-84
2023/12/01 11:12:53;;;;;;;30.17;15.88;;;;;;;-2.53;86.07;97775.78;5069735;28;20021;-85
2023/12/01 11:15:26;;;;;;;37.05;16.45;;;;;;;-1.81;88.37;97760.41;5072843;28;20548;-84